createdAt,value
2022-07-27T00:00:20.551Z,58.18
2022-07-27T00:02:22.320Z,58.04
2022-07-27T00:04:24.161Z,57.97
2022-07-27T00:06:26.307Z,58.08
2022-07-27T00:08:27.993Z,58.39
2022-07-27T00:10:29.721Z,57.88
2022-07-27T00:12:31.541Z,58.18
2022-07-27T00:14:33.424Z,58.27
2022-07-27T00:16:35.310Z,57.94
2022-07-27T00:18:37.142Z,57.59
2022-07-27T00:20:40.067Z,57.79
2022-07-27T00:22:42.110Z,57.99
2022-07-27T00:24:44.076Z,57.90
2022-07-27T00:26:45.861Z,57.80
2022-07-27T00:28:51.489Z,57.99
2022-07-27T00:30:53.180Z,57.80
2022-07-27T00:32:55.250Z,57.79
2022-07-27T00:34:56.938Z,57.75
2022-07-27T00:36:58.748Z,57.62
2022-07-27T00:39:00.635Z,57.59
2022-07-27T00:41:02.435Z,57.79
2022-07-27T00:43:04.153Z,57.39
2022-07-27T00:45:06.412Z,57.25
2022-07-27T00:47:08.277Z,57.04
2022-07-27T00:49:10.356Z,57.33
2022-07-27T00:51:13.280Z,57.39
2022-07-27T00:53:15.693Z,57.44
2022-07-27T00:55:17.455Z,57.56
2022-07-27T00:57:19.483Z,57.75
2022-07-27T00:59:27.985Z,57.75
2022-07-27T01:01:29.743Z,57.67
2022-07-27T01:03:31.950Z,57.34
2022-07-27T01:05:40.029Z,57.62
2022-07-27T01:07:45.279Z,57.43
2022-07-27T01:09:59.804Z,57.69
2022-07-27T01:12:01.933Z,57.41
2022-07-27T01:14:03.722Z,57.36
2022-07-27T01:16:07.120Z,57.05
2022-07-27T01:18:14.204Z,57.09
2022-07-27T01:20:15.943Z,57.49
2022-07-27T01:22:18.255Z,56.96
2022-07-27T01:24:20.425Z,57.10
2022-07-27T01:26:22.277Z,57.05
2022-07-27T01:28:24.311Z,57.39
2022-07-27T01:30:26.755Z,57.34
2022-07-27T01:32:28.494Z,57.25
2022-07-27T01:34:33.562Z,57.29
2022-07-27T01:36:35.299Z,57.43
2022-07-27T01:38:37.061Z,57.53
2022-07-27T01:40:39.952Z,57.60
2022-07-27T01:42:41.791Z,57.51
2022-07-27T01:44:43.530Z,57.43
2022-07-27T01:46:45.591Z,57.50
2022-07-27T01:48:47.379Z,57.71
2022-07-27T01:50:51.229Z,57.75
2022-07-27T01:52:53.262Z,58.10
2022-07-27T01:54:54.979Z,57.81
2022-07-27T01:56:56.638Z,57.77
2022-07-27T01:58:59.102Z,57.48
2022-07-27T02:01:00.793Z,57.71
2022-07-27T02:03:04.040Z,57.59
2022-07-27T02:05:06.684Z,57.63
2022-07-27T02:07:08.762Z,57.60
2022-07-27T02:09:10.637Z,57.70
2022-07-27T02:11:31.313Z,57.45
2022-07-27T02:13:33.040Z,57.51
2022-07-27T02:15:44.485Z,57.67
2022-07-27T02:17:47.391Z,57.68
2022-07-27T02:19:49.046Z,58.02
2022-07-27T02:21:51.072Z,57.41
2022-07-27T02:23:52.788Z,57.58
2022-07-27T02:25:54.622Z,57.31
2022-07-27T02:27:56.338Z,57.09
2022-07-27T02:29:58.179Z,56.57
2022-07-27T02:31:59.935Z,56.78
2022-07-27T02:34:01.759Z,56.36
2022-07-27T02:36:03.757Z,56.44
2022-07-27T02:38:12.090Z,56.36
2022-07-27T02:40:15.814Z,55.97
2022-07-27T02:42:17.488Z,56.01
2022-07-27T02:44:20.320Z,56.08
2022-07-27T02:46:22.241Z,55.78
2022-07-27T02:48:23.995Z,55.75
2022-07-27T02:50:25.910Z,56.09
2022-07-27T02:52:27.871Z,55.95
2022-07-27T02:54:32.486Z,55.66
2022-07-27T02:56:34.304Z,55.86
2022-07-27T02:58:36.439Z,55.70
2022-07-27T03:00:38.194Z,55.51
2022-07-27T03:02:40.316Z,55.52
2022-07-27T03:04:42.085Z,55.59
2022-07-27T03:06:44.049Z,55.55
2022-07-27T03:08:45.838Z,55.33
2022-07-27T03:10:48.556Z,55.48
2022-07-27T03:12:50.694Z,55.13
2022-07-27T03:14:52.618Z,55.18
2022-07-27T03:16:54.675Z,55.08
2022-07-27T03:18:57.946Z,54.80
2022-07-27T03:20:59.720Z,54.77
2022-07-27T03:23:02.006Z,54.83
2022-07-27T03:25:04.304Z,54.89
2022-07-27T03:27:06.038Z,54.84
2022-07-27T03:29:10.075Z,54.87
2022-07-27T03:31:12.134Z,54.82
2022-07-27T03:33:14.053Z,55.26
2022-07-27T03:35:15.828Z,55.38
2022-07-27T03:37:19.117Z,55.17
2022-07-27T03:39:20.813Z,55.07
2022-07-27T03:41:22.745Z,54.98
2022-07-27T03:43:24.445Z,54.85
2022-07-27T03:45:27.332Z,54.80
2022-07-27T03:47:29.008Z,54.63
2022-07-27T03:49:30.879Z,54.42
2022-07-27T03:51:32.714Z,54.75
2022-07-27T03:53:34.538Z,54.43
2022-07-27T03:55:36.231Z,54.00
2022-07-27T03:57:38.000Z,53.72
2022-07-27T03:59:39.708Z,53.48
2022-07-27T04:01:42.771Z,53.40
2022-07-27T04:03:44.674Z,53.09
2022-07-27T04:05:46.660Z,52.66
2022-07-27T04:07:54.900Z,53.01
2022-07-27T04:09:57.018Z,52.69
2022-07-27T04:11:59.137Z,52.70
2022-07-27T04:14:01.963Z,52.59
2022-07-27T04:16:04.129Z,52.35
2022-07-27T04:18:17.234Z,52.56
2022-07-27T04:20:19.393Z,52.45
2022-07-27T04:22:21.257Z,52.92
2022-07-27T04:24:23.486Z,53.96
2022-07-27T04:26:25.443Z,54.19
2022-07-27T04:28:27.583Z,54.82
2022-07-27T04:30:29.865Z,54.83
2022-07-27T04:32:32.160Z,54.97
2022-07-27T04:34:38.348Z,54.66
2022-07-27T04:36:40.385Z,54.77
2022-07-27T04:38:42.450Z,54.91
2022-07-27T04:40:44.332Z,54.93
2022-07-27T04:42:49.431Z,54.93
2022-07-27T04:44:52.026Z,54.92
2022-07-27T04:46:53.921Z,54.70
2022-07-27T04:48:56.201Z,54.84
2022-07-27T04:50:58.325Z,54.10
2022-07-27T04:53:00.404Z,54.42
2022-07-27T04:55:02.942Z,53.94
2022-07-27T04:57:05.084Z,53.70
2022-07-27T04:59:07.135Z,53.69
2022-07-27T05:01:12.570Z,53.67
2022-07-27T05:03:15.269Z,54.06
2022-07-27T05:05:17.073Z,53.90
2022-07-27T05:07:18.844Z,53.80
2022-07-27T05:09:22.419Z,54.00
2022-07-27T05:11:24.778Z,54.21
2022-07-27T05:13:26.626Z,54.13
2022-07-27T05:15:28.494Z,54.37
2022-07-27T05:17:52.221Z,54.37
2022-07-27T05:19:53.916Z,54.50
2022-07-27T05:21:55.658Z,54.73
2022-07-27T05:23:57.424Z,55.36
2022-07-27T05:25:59.417Z,55.47
2022-07-27T05:28:01.436Z,55.51
2022-07-27T05:30:07.800Z,55.64
2022-07-27T05:32:09.778Z,55.46
2022-07-27T05:34:11.846Z,55.43
2022-07-27T05:36:13.883Z,55.27
2022-07-27T05:38:17.189Z,55.49
2022-07-27T05:40:18.991Z,55.44
2022-07-27T05:42:20.744Z,55.77
2022-07-27T05:44:22.540Z,56.00
2022-07-27T05:46:25.619Z,55.99
2022-07-27T05:48:29.261Z,55.56
2022-07-27T05:50:31.310Z,55.41
2022-07-27T05:52:33.553Z,55.34
2022-07-27T05:54:35.270Z,55.34
2022-07-27T05:56:38.702Z,55.23
2022-07-27T05:58:40.823Z,55.35
2022-07-27T06:00:43.029Z,55.08
2022-07-27T06:02:44.794Z,55.04
2022-07-27T06:04:46.649Z,55.07
2022-07-27T06:07:06.855Z,55.38
2022-07-27T06:09:08.785Z,55.30
2022-07-27T06:11:11.163Z,55.00
2022-07-27T06:13:14.046Z,54.93
2022-07-27T06:15:17.321Z,54.73
2022-07-27T06:17:19.608Z,55.15
2022-07-27T06:19:21.377Z,54.58
2022-07-27T06:21:26.075Z,54.62
2022-07-27T06:23:28.714Z,54.75
2022-07-27T06:25:35.670Z,54.45
2022-07-27T06:27:38.055Z,54.09
2022-07-27T06:29:40.249Z,53.96
2022-07-27T06:31:42.772Z,53.94
2022-07-27T06:33:50.392Z,53.81
2022-07-27T06:35:55.920Z,53.87
2022-07-27T06:37:58.276Z,53.85
2022-07-27T06:40:01.287Z,54.11
2022-07-27T06:42:03.151Z,53.86
2022-07-27T06:44:05.207Z,53.96
2022-07-27T06:46:08.035Z,53.97
2022-07-27T06:48:20.374Z,53.87
2022-07-27T06:50:22.777Z,54.03
2022-07-27T06:52:25.159Z,53.91
2022-07-27T06:54:27.046Z,53.89
2022-07-27T06:56:28.871Z,53.54
2022-07-27T06:58:32.529Z,53.74
2022-07-27T07:00:35.468Z,53.10
2022-07-27T07:02:37.735Z,53.46
2022-07-27T07:04:39.580Z,53.29
2022-07-27T07:06:41.405Z,53.74
2022-07-27T07:08:43.360Z,53.64
2022-07-27T07:10:46.198Z,53.72
2022-07-27T07:12:48.071Z,53.39
2022-07-27T07:14:50.016Z,53.53
2022-07-27T07:16:52.736Z,53.18
2022-07-27T07:18:55.006Z,53.21
2022-07-27T07:20:56.810Z,53.19
2022-07-27T07:23:00.049Z,53.15
2022-07-27T07:25:03.372Z,53.23
2022-07-27T07:27:05.387Z,52.83
2022-07-27T07:29:08.022Z,52.58
2022-07-27T07:31:09.985Z,53.00
2022-07-27T07:33:11.879Z,52.80
2022-07-27T07:35:14.213Z,52.79
2022-07-27T07:37:18.388Z,52.51
2022-07-27T07:39:20.113Z,52.94
2022-07-27T07:41:23.989Z,52.68
2022-07-27T07:43:27.144Z,52.62
2022-07-27T07:45:32.091Z,52.50
2022-07-27T07:47:33.905Z,52.33
2022-07-27T07:49:39.652Z,52.50
2022-07-27T07:51:42.509Z,52.19
2022-07-27T07:53:44.787Z,52.31
2022-07-27T07:55:46.690Z,52.48
2022-07-27T07:57:50.163Z,52.48
2022-07-27T07:59:52.672Z,52.65
2022-07-27T08:01:54.559Z,52.48
2022-07-27T08:03:57.027Z,52.60
2022-07-27T08:05:59.296Z,52.39
2022-07-27T08:08:03.702Z,52.42
2022-07-27T08:10:09.130Z,52.53
2022-07-27T08:12:11.698Z,52.22
2022-07-27T08:14:13.673Z,52.43
2022-07-27T08:16:16.750Z,52.56
2022-07-27T08:18:22.340Z,52.26
2022-07-27T08:20:27.131Z,52.28
2022-07-27T08:22:28.941Z,52.41
2022-07-27T08:24:31.060Z,52.52
2022-07-27T08:26:32.814Z,52.21
2022-07-27T08:28:36.943Z,52.20
2022-07-27T08:30:39.143Z,52.00
2022-07-27T08:32:50.435Z,51.89
2022-07-27T08:34:52.244Z,51.76
2022-07-27T08:36:54.109Z,51.58
2022-07-27T08:38:56.268Z,51.27
2022-07-27T08:41:02.245Z,50.99
2022-07-27T08:43:05.602Z,50.81
2022-07-27T08:45:09.988Z,50.87
2022-07-27T08:47:19.812Z,50.46
2022-07-27T08:49:21.619Z,49.80
2022-07-27T08:51:25.110Z,49.77
2022-07-27T08:53:34.105Z,50.30
2022-07-27T08:55:53.500Z,49.99
2022-07-27T08:58:00.571Z,49.30
2022-07-27T09:00:06.549Z,48.97
2022-07-27T09:02:14.458Z,48.60
2022-07-27T09:04:16.324Z,48.21
2022-07-27T09:06:53.289Z,46.36
2022-07-27T09:08:59.834Z,45.94
2022-07-27T09:11:03.685Z,46.25
2022-07-27T09:13:26.337Z,46.79
2022-07-27T09:15:34.421Z,47.04
2022-07-27T09:17:52.277Z,46.80
2022-07-27T09:19:58.343Z,46.58
2022-07-27T09:22:00.704Z,46.08
2022-07-27T09:24:23.438Z,46.62
2022-07-27T09:26:33.979Z,46.91
2022-07-27T09:28:36.252Z,47.24
2022-07-27T09:30:44.258Z,47.01
2022-07-27T09:33:06.763Z,46.82
2022-07-27T09:35:16.807Z,46.87
2022-07-27T09:37:26.824Z,46.87
2022-07-27T09:39:30.227Z,46.60
2022-07-27T09:41:47.651Z,46.75
2022-07-27T09:44:29.059Z,46.90
2022-07-27T09:46:15.478Z,47.08
2022-07-27T09:48:24.494Z,46.45
2022-07-27T09:50:31.092Z,46.39
2022-07-27T09:52:39.042Z,46.41
2022-07-27T09:54:47.762Z,46.21
2022-07-27T09:57:01.366Z,46.02
2022-07-27T09:59:04.850Z,45.78
2022-07-27T10:01:07.964Z,45.76
2022-07-27T10:03:10.594Z,46.08
2022-07-27T10:05:14.386Z,46.02
2022-07-27T10:07:16.582Z,46.11
2022-07-27T10:09:20.160Z,46.03
2022-07-27T10:11:24.105Z,45.82
2022-07-27T10:13:26.096Z,45.65
2022-07-27T10:15:28.005Z,45.13
2022-07-27T10:17:30.172Z,45.23
2022-07-27T10:19:45.930Z,45.15
2022-07-27T10:21:48.958Z,45.36
2022-07-27T10:23:59.676Z,45.15
2022-07-27T10:26:27.457Z,45.23
2022-07-27T10:28:30.267Z,44.80
2022-07-27T10:30:32.399Z,44.58
2022-07-27T10:32:34.499Z,44.56
2022-07-27T10:34:36.200Z,44.69
2022-07-27T10:36:53.226Z,44.74
2022-07-27T10:38:57.100Z,44.66
2022-07-27T10:41:24.817Z,44.25
2022-07-27T10:43:28.637Z,44.02
2022-07-27T10:46:00.263Z,43.10
2022-07-27T10:48:13.121Z,43.40
2022-07-27T10:50:18.085Z,43.39
2022-07-27T10:52:48.097Z,43.97
2022-07-27T10:54:56.798Z,43.75
2022-07-27T10:57:03.764Z,44.00
2022-07-27T10:59:06.068Z,43.71
2022-07-27T11:01:09.239Z,43.49
2022-07-27T11:03:34.543Z,43.41
2022-07-27T11:08:46.918Z,43.18
2022-07-27T11:10:49.151Z,43.26
2022-07-27T11:12:53.937Z,42.78
2022-07-27T11:14:58.235Z,43.16
2022-07-27T11:17:32.156Z,43.04
2022-07-27T11:19:24.936Z,42.80
2022-07-27T11:21:39.128Z,42.63
2022-07-27T11:23:50.918Z,42.71
2022-07-27T11:26:01.592Z,42.76
2022-07-27T11:28:18.853Z,42.38
2022-07-27T11:30:26.496Z,42.84
2022-07-27T11:32:28.496Z,43.06
2022-07-27T11:34:32.575Z,43.07
2022-07-27T11:36:50.507Z,43.12
2022-07-27T11:38:54.850Z,43.32
2022-07-27T11:41:08.042Z,43.47
2022-07-27T11:43:36.890Z,43.63
2022-07-27T11:45:43.106Z,43.36
2022-07-27T11:47:45.347Z,43.24
2022-07-27T11:49:47.642Z,43.63
2022-07-27T11:51:50.607Z,43.50
2022-07-27T11:54:09.036Z,43.50
2022-07-27T11:56:11.551Z,43.87
2022-07-27T11:58:21.304Z,44.09
2022-07-27T12:00:23.450Z,43.80
2022-07-27T12:02:27.454Z,44.02
2022-07-27T12:04:31.057Z,44.08
2022-07-27T12:06:35.166Z,44.15
2022-07-27T12:08:37.029Z,44.15
2022-07-27T12:10:39.187Z,44.36
2022-07-27T12:12:49.573Z,44.19
2022-07-27T12:14:56.872Z,44.56
2022-07-27T12:17:26.491Z,44.59
2022-07-27T12:19:29.192Z,44.28
2022-07-27T12:21:31.979Z,44.01
2022-07-27T12:23:34.729Z,44.37
2022-07-27T12:25:40.663Z,44.30
2022-07-27T12:27:59.314Z,44.36
2022-07-27T12:30:25.393Z,43.98
2022-07-27T12:32:31.628Z,44.16
2022-07-27T12:34:36.737Z,43.99
2022-07-27T12:36:42.634Z,43.79
2022-07-27T12:38:49.001Z,43.99
2022-07-27T12:41:01.147Z,43.69
2022-07-27T12:43:07.652Z,43.78
2022-07-27T12:45:19.379Z,43.76
2022-07-27T12:47:40.541Z,43.54
2022-07-27T12:49:46.472Z,43.26
2022-07-27T12:51:48.753Z,43.23
2022-07-27T12:53:53.094Z,43.27
2022-07-27T12:55:58.739Z,43.34
2022-07-27T12:58:02.902Z,43.48
2022-07-27T13:00:07.916Z,44.63
2022-07-27T13:02:09.790Z,44.78
2022-07-27T13:04:11.736Z,44.75
2022-07-27T13:06:14.406Z,44.82
2022-07-27T13:08:23.363Z,45.08
2022-07-27T13:10:26.096Z,45.15
2022-07-27T13:12:28.257Z,44.98
2022-07-27T13:14:30.330Z,45.17
2022-07-27T13:16:32.292Z,45.15
2022-07-27T13:18:34.634Z,45.31
2022-07-27T13:20:37.217Z,45.44
2022-07-27T13:22:40.443Z,45.25
2022-07-27T13:24:42.836Z,46.09
2022-07-27T13:26:44.826Z,45.77
2022-07-27T13:28:48.585Z,45.83
2022-07-27T13:30:51.531Z,45.86
2022-07-27T13:32:53.901Z,45.92
2022-07-27T13:34:55.739Z,45.82
2022-07-27T13:36:57.578Z,45.97
2022-07-27T13:38:59.349Z,46.15
2022-07-27T13:41:01.538Z,46.14
2022-07-27T13:43:03.400Z,46.37
2022-07-27T13:45:12.223Z,46.35
2022-07-27T13:47:14.473Z,46.18
2022-07-27T13:49:18.052Z,46.28
2022-07-27T13:51:20.321Z,46.28
2022-07-27T13:53:22.694Z,46.41
2022-07-27T13:55:28.283Z,46.27
2022-07-27T13:57:30.279Z,45.95
2022-07-27T13:59:32.179Z,46.13
2022-07-27T14:01:35.883Z,46.97
2022-07-27T14:03:41.946Z,46.75
2022-07-27T14:05:49.129Z,46.74
2022-07-27T14:07:52.949Z,46.78
2022-07-27T14:10:13.461Z,46.67
2022-07-27T14:12:15.476Z,46.64
2022-07-27T14:14:17.331Z,47.14
2022-07-27T14:16:27.490Z,46.67
2022-07-27T14:18:38.868Z,46.63
2022-07-27T14:20:41.284Z,46.44
2022-07-27T14:22:43.644Z,46.43
2022-07-27T14:24:45.661Z,46.55
2022-07-27T14:26:49.578Z,46.51
2022-07-27T14:28:52.849Z,46.49
2022-07-27T14:30:55.912Z,46.02
2022-07-27T14:33:03.021Z,45.90
2022-07-27T14:35:06.809Z,45.52
2022-07-27T14:37:08.600Z,45.54
2022-07-27T14:39:11.407Z,45.53
2022-07-27T14:41:13.429Z,45.62
2022-07-27T14:43:16.206Z,45.37
2022-07-27T14:45:18.041Z,45.47
2022-07-27T14:47:20.515Z,45.55
2022-07-27T14:49:23.209Z,45.09
2022-07-27T14:51:25.942Z,45.05
2022-07-27T14:53:28.153Z,44.96
2022-07-27T14:55:31.101Z,44.99
2022-07-27T14:57:33.222Z,45.30
2022-07-27T14:59:36.056Z,45.05
2022-07-27T15:01:40.606Z,44.79
2022-07-27T15:03:42.770Z,45.01
2022-07-27T15:05:50.280Z,45.27
2022-07-27T15:07:53.305Z,45.32
2022-07-27T15:09:55.083Z,45.20
2022-07-27T15:11:58.579Z,44.92
2022-07-27T15:14:00.631Z,44.96
2022-07-27T15:16:07.446Z,44.94
2022-07-27T15:18:18.944Z,44.94
2022-07-27T15:20:20.914Z,44.81
2022-07-27T15:22:24.764Z,45.03
2022-07-27T15:24:26.712Z,45.24
2022-07-27T15:26:28.445Z,45.03
2022-07-27T15:28:30.644Z,44.92
2022-07-27T15:30:38.145Z,45.17
2022-07-27T15:32:40.735Z,45.12
2022-07-27T15:34:43.253Z,45.14
2022-07-27T15:36:51.629Z,44.86
2022-07-27T15:38:54.035Z,44.76
2022-07-27T15:40:56.230Z,44.73
2022-07-27T15:43:00.542Z,44.73
2022-07-27T15:45:02.952Z,44.70
2022-07-27T15:47:05.014Z,44.24
2022-07-27T15:49:06.974Z,44.34
2022-07-27T15:51:09.528Z,44.33
2022-07-27T15:53:12.259Z,44.10
2022-07-27T15:55:16.875Z,44.09
2022-07-27T15:57:18.951Z,43.87
2022-07-27T15:59:20.738Z,43.56
2022-07-27T16:01:23.031Z,43.97
2022-07-27T16:03:38.008Z,44.05
2022-07-27T16:05:41.134Z,44.08
2022-07-27T16:07:43.005Z,44.25
2022-07-27T16:09:44.768Z,44.15
2022-07-27T16:11:46.606Z,44.27
2022-07-27T16:13:48.481Z,44.05
2022-07-27T16:16:09.047Z,44.19
2022-07-27T16:18:16.197Z,44.18
2022-07-27T16:20:18.095Z,44.18
2022-07-27T16:22:19.923Z,44.01
2022-07-27T16:24:22.364Z,44.12
2022-07-27T16:26:25.153Z,44.30
2022-07-27T16:28:28.203Z,44.43
2022-07-27T16:30:33.987Z,44.30
2022-07-27T16:32:39.752Z,44.30
2022-07-27T16:34:41.574Z,44.24
2022-07-27T16:36:43.269Z,44.54
2022-07-27T16:38:54.505Z,44.43
2022-07-27T16:40:56.422Z,44.41
2022-07-27T16:42:59.676Z,44.55
2022-07-27T16:45:02.007Z,44.37
2022-07-27T16:47:06.304Z,44.37
2022-07-27T16:49:08.755Z,44.34
2022-07-27T16:51:15.195Z,44.33
2022-07-27T16:53:17.410Z,44.17
2022-07-27T16:55:19.287Z,44.45
2022-07-27T16:57:24.367Z,44.43
2022-07-27T16:59:26.175Z,44.54
2022-07-27T17:01:29.143Z,44.43
2022-07-27T17:03:31.283Z,44.22
2022-07-27T17:05:33.525Z,44.21
2022-07-27T17:07:35.672Z,44.38
2022-07-27T17:09:37.449Z,44.29
2022-07-27T17:11:39.275Z,44.03
2022-07-27T17:13:46.887Z,44.07
2022-07-27T17:15:52.537Z,44.07
2022-07-27T17:17:54.370Z,44.25
2022-07-27T17:19:56.365Z,44.17
2022-07-27T17:21:58.443Z,43.81
2022-07-27T17:24:00.226Z,44.08
2022-07-27T17:26:01.963Z,43.75
2022-07-27T17:28:07.719Z,43.75
2022-07-27T17:30:10.180Z,43.31
2022-07-27T17:32:11.979Z,42.81
2022-07-27T17:34:13.841Z,42.68
2022-07-27T17:36:15.972Z,42.98
2022-07-27T17:38:23.215Z,42.34
2022-07-27T17:40:25.539Z,42.44
2022-07-27T17:42:27.512Z,42.56
2022-07-27T17:44:29.444Z,42.40
2022-07-27T17:46:34.381Z,41.92
2022-07-27T17:48:41.184Z,41.38
2022-07-27T17:50:43.362Z,41.68
2022-07-27T17:52:45.823Z,41.64
2022-07-27T17:54:48.173Z,41.65
2022-07-27T17:56:50.080Z,41.35
2022-07-27T17:58:51.971Z,41.71
2022-07-27T18:00:53.857Z,41.74
2022-07-27T18:02:56.455Z,41.51
2022-07-27T18:04:58.335Z,41.24
2022-07-27T18:07:00.918Z,41.19
2022-07-27T18:09:03.001Z,41.54
2022-07-27T18:11:05.812Z,41.54
2022-07-27T18:13:08.497Z,41.25
2022-07-27T18:15:29.126Z,41.10
2022-07-27T18:17:31.078Z,41.15
2022-07-27T18:19:33.196Z,41.15
2022-07-27T18:21:35.875Z,41.18
2022-07-27T18:23:38.059Z,40.93
2022-07-27T18:25:39.964Z,41.31
2022-07-27T18:27:43.165Z,41.34
2022-07-27T18:29:45.056Z,41.45
2022-07-27T18:31:47.110Z,41.29
2022-07-27T18:33:50.976Z,41.60
2022-07-27T18:35:53.567Z,41.63
2022-07-27T18:37:56.163Z,41.38
2022-07-27T18:39:58.076Z,41.32
2022-07-27T18:42:03.935Z,41.49
2022-07-27T18:44:06.289Z,41.53
2022-07-27T18:46:08.208Z,41.52
2022-07-27T18:48:16.945Z,41.58
2022-07-27T18:50:18.901Z,41.97
2022-07-27T18:52:20.767Z,41.97
2022-07-27T18:54:23.275Z,42.00
2022-07-27T18:56:25.309Z,42.17
2022-07-27T18:58:28.920Z,41.88
2022-07-27T19:00:31.018Z,42.02
2022-07-27T19:02:39.097Z,42.22
2022-07-27T19:04:41.550Z,42.26
2022-07-27T19:06:44.934Z,42.33
2022-07-27T19:08:48.013Z,42.47
2022-07-27T19:10:51.296Z,42.13
2022-07-27T19:12:54.501Z,42.24
2022-07-27T19:14:58.129Z,41.89
2022-07-27T19:17:00.222Z,41.87
2022-07-27T19:19:03.279Z,41.86
2022-07-27T19:21:05.417Z,41.62
2022-07-27T19:23:08.015Z,41.70
2022-07-27T19:25:09.927Z,41.48
2022-07-27T19:27:12.011Z,41.30
2022-07-27T19:29:17.287Z,41.28
2022-07-27T19:31:21.639Z,41.00
2022-07-27T19:33:25.688Z,41.12
2022-07-27T19:35:28.023Z,41.17
2022-07-27T19:37:31.581Z,41.23
2022-07-27T19:39:56.978Z,41.57
2022-07-27T19:41:56.846Z,41.19
2022-07-27T19:43:59.386Z,41.28
2022-07-27T19:46:01.703Z,41.07
2022-07-27T19:48:13.591Z,41.05
2022-07-27T19:50:15.675Z,40.94
2022-07-27T19:52:17.758Z,40.92
2022-07-27T19:54:19.947Z,40.91
2022-07-27T19:56:22.165Z,40.77
2022-07-27T19:58:24.174Z,40.88
2022-07-27T20:00:26.371Z,40.93
2022-07-27T20:02:28.220Z,41.17
2022-07-27T20:04:30.096Z,41.37
2022-07-27T20:06:32.878Z,41.26
2022-07-27T20:08:35.062Z,41.54
2022-07-27T20:10:36.806Z,41.45
2022-07-27T20:12:38.727Z,41.17
2022-07-27T20:14:40.486Z,41.16
2022-07-27T20:16:42.280Z,41.40
2022-07-27T20:18:44.042Z,41.69
2022-07-27T20:20:45.783Z,41.92
2022-07-27T20:22:47.676Z,41.95
2022-07-27T20:24:49.392Z,41.71
2022-07-27T20:26:51.185Z,41.77
2022-07-27T20:28:53.256Z,41.42
2022-07-27T20:30:55.305Z,41.90
2022-07-27T20:32:57.136Z,41.12
2022-07-27T20:34:58.960Z,40.72
2022-07-27T20:37:00.666Z,40.71
2022-07-27T20:39:04.890Z,41.07
2022-07-27T20:41:09.273Z,40.98
2022-07-27T20:43:11.081Z,40.75
2022-07-27T20:45:14.690Z,40.72
2022-07-27T20:47:16.612Z,40.98
2022-07-27T20:49:19.027Z,40.78
2022-07-27T20:51:21.259Z,41.01
2022-07-27T20:53:24.360Z,40.83
2022-07-27T20:55:26.136Z,41.19
2022-07-27T20:57:28.192Z,41.28
2022-07-27T20:59:30.127Z,41.43
2022-07-27T21:01:31.936Z,41.37
2022-07-27T21:03:34.394Z,41.60
2022-07-27T21:05:36.094Z,41.89
2022-07-27T21:07:38.157Z,42.19
2022-07-27T21:09:40.271Z,42.23
2022-07-27T21:11:42.212Z,42.25
2022-07-27T21:13:43.923Z,42.21
2022-07-27T21:15:45.608Z,42.48
2022-07-27T21:17:47.301Z,42.79
2022-07-27T21:19:49.011Z,42.85
2022-07-27T21:21:50.694Z,42.91
2022-07-27T21:24:11.510Z,43.06
2022-07-27T21:26:18.116Z,43.48
2022-07-27T21:28:24.684Z,43.32
2022-07-27T21:30:26.754Z,43.22
2022-07-27T21:32:29.085Z,43.22
2022-07-27T21:34:30.894Z,43.53
2022-07-27T21:36:36.347Z,43.78
2022-07-27T21:38:41.046Z,44.12
2022-07-27T21:40:42.914Z,44.77
2022-07-27T21:42:44.619Z,45.13
2022-07-27T21:44:46.851Z,45.49
2022-07-27T21:46:52.749Z,45.79
2022-07-27T21:48:54.934Z,45.82
2022-07-27T21:50:56.731Z,45.79
2022-07-27T21:53:00.091Z,46.07
2022-07-27T21:55:01.824Z,46.48
2022-07-27T21:57:03.566Z,46.65
2022-07-27T21:59:05.285Z,46.60
2022-07-27T22:01:10.247Z,46.49
2022-07-27T22:03:12.196Z,46.77
2022-07-27T22:05:13.914Z,47.18
2022-07-27T22:07:16.787Z,47.13
2022-07-27T22:09:21.505Z,47.75
2022-07-27T22:11:23.380Z,47.58
2022-07-27T22:13:25.906Z,48.07
2022-07-27T22:15:28.025Z,48.17
2022-07-27T22:17:29.682Z,48.32
2022-07-27T22:19:31.374Z,48.45
2022-07-27T22:21:33.082Z,48.49
2022-07-27T22:23:34.871Z,48.43
2022-07-27T22:25:37.559Z,48.59
2022-07-27T22:27:39.504Z,48.80
2022-07-27T22:29:41.203Z,48.57
2022-07-27T22:31:42.987Z,49.00
2022-07-27T22:33:44.914Z,48.68
2022-07-27T22:35:46.679Z,48.90
2022-07-27T22:37:49.273Z,49.26
2022-07-27T22:39:51.014Z,49.20
2022-07-27T22:41:52.763Z,49.29
2022-07-27T22:43:54.552Z,49.65
2022-07-27T22:45:56.485Z,49.66
2022-07-27T22:47:58.236Z,49.27
2022-07-27T22:50:00.037Z,49.79
2022-07-27T22:52:02.326Z,49.86
2022-07-27T22:54:04.472Z,50.13
2022-07-27T22:56:06.302Z,49.96
2022-07-27T22:58:13.076Z,50.15
2022-07-27T23:00:15.015Z,50.02
2022-07-27T23:02:16.690Z,50.21
2022-07-27T23:04:18.790Z,50.12
2022-07-27T23:06:20.896Z,50.24
2022-07-27T23:08:24.664Z,50.14
2022-07-27T23:10:44.884Z,50.42
2022-07-27T23:12:46.621Z,50.45
2022-07-27T23:14:49.137Z,50.58
2022-07-27T23:16:51.022Z,50.37
2022-07-27T23:18:52.765Z,50.56
2022-07-27T23:20:54.656Z,51.03
2022-07-27T23:22:56.435Z,50.91
2022-07-27T23:24:58.785Z,50.62
2022-07-27T23:27:00.495Z,50.85
2022-07-27T23:29:02.335Z,50.87
2022-07-27T23:31:04.161Z,51.19
2022-07-27T23:33:06.194Z,51.02
2022-07-27T23:35:08.503Z,50.80
2022-07-27T23:37:10.248Z,51.07
2022-07-27T23:39:11.995Z,51.00
2022-07-27T23:41:13.898Z,51.18
2022-07-27T23:43:15.700Z,50.88
2022-07-27T23:45:17.565Z,50.93
2022-07-27T23:47:19.382Z,50.68
2022-07-27T23:49:21.259Z,50.84
2022-07-27T23:51:23.068Z,50.75
2022-07-27T23:53:24.753Z,50.60
2022-07-27T23:55:26.893Z,50.37
2022-07-27T23:57:29.337Z,50.41
2022-07-27T23:59:31.031Z,50.24
